sensor_id;sensor_type;location;lat;lon;timestamp;P1;durP1;ratioP1;P2;durP2;ratioP2
7843;SDS011;3967;48.702;9.326;2023-09-30T00:01:54;7.87;;;3.83;;
7843;SDS011;3967;48.702;9.326;2023-09-30T00:04:21;7.93;;;3.93;;
7843;SDS011;3967;48.702;9.326;2023-09-30T00:06:48;9.53;;;4.20;;
7843;SDS011;3967;48.702;9.326;2023-09-30T00:09:15;9.83;;;3.70;;
7843;SDS011;3967;48.702;9.326;2023-09-30T00:11:42;8.33;;;4.00;;
7843;SDS011;3967;48.702;9.326;2023-09-30T00:14:08;7.60;;;4.30;;
7843;SDS011;3967;48.702;9.326;2023-09-30T00:16:35;6.20;;;3.70;;
7843;SDS011;3967;48.702;9.326;2023-09-30T00:19:02;8.33;;;4.30;;
7843;SDS011;3967;48.702;9.326;2023-09-30T00:21:29;7.53;;;3.70;;
7843;SDS011;3967;48.702;9.326;2023-09-30T00:23:56;9.83;;;4.20;;
7843;SDS011;3967;48.702;9.326;2023-09-30T00:26:23;8.20;;;4.53;;
7843;SDS011;3967;48.702;9.326;2023-09-30T00:28:50;8.90;;;3.80;;
7843;SDS011;3967;48.702;9.326;2023-09-30T00:31:17;8.23;;;4.07;;
7843;SDS011;3967;48.702;9.326;2023-09-30T00:33:44;8.10;;;3.87;;
7843;SDS011;3967;48.702;9.326;2023-09-30T00:36:11;7.40;;;3.80;;
7843;SDS011;3967;48.702;9.326;2023-09-30T00:38:38;6.17;;;3.50;;
7843;SDS011;3967;48.702;9.326;2023-09-30T00:41:06;8.90;;;3.70;;
7843;SDS011;3967;48.702;9.326;2023-09-30T00:43:35;8.90;;;3.73;;
7843;SDS011;3967;48.702;9.326;2023-09-30T00:46:03;8.03;;;3.73;;
7843;SDS011;3967;48.702;9.326;2023-09-30T00:48:41;7.87;;;3.73;;
7843;SDS011;3967;48.702;9.326;2023-09-30T00:51:08;6.77;;;3.50;;
7843;SDS011;3967;48.702;9.326;2023-09-30T00:53:35;6.87;;;3.70;;
7843;SDS011;3967;48.702;9.326;2023-09-30T00:56:02;6.50;;;3.37;;
7843;SDS011;3967;48.702;9.326;2023-09-30T00:58:30;6.23;;;3.30;;
7843;SDS011;3967;48.702;9.326;2023-09-30T01:00:57;5.30;;;2.83;;
7843;SDS011;3967;48.702;9.326;2023-09-30T01:03:25;6.93;;;3.60;;
7843;SDS011;3967;48.702;9.326;2023-09-30T01:05:53;8.13;;;3.70;;
7843;SDS011;3967;48.702;9.326;2023-09-30T01:08:20;6.53;;;3.77;;
7843;SDS011;3967;48.702;9.326;2023-09-30T01:10:47;7.07;;;3.60;;
7843;SDS011;3967;48.702;9.326;2023-09-30T01:13:14;6.20;;;3.13;;
7843;SDS011;3967;48.702;9.326;2023-09-30T01:15:41;9.33;;;4.13;;
7843;SDS011;3967;48.702;9.326;2023-09-30T01:18:08;7.40;;;3.67;;
7843;SDS011;3967;48.702;9.326;2023-09-30T01:20:35;9.20;;;3.70;;
7843;SDS011;3967;48.702;9.326;2023-09-30T01:23:02;6.77;;;3.20;;
7843;SDS011;3967;48.702;9.326;2023-09-30T01:25:30;6.97;;;3.27;;
7843;SDS011;3967;48.702;9.326;2023-09-30T01:27:59;5.83;;;3.23;;
7843;SDS011;3967;48.702;9.326;2023-09-30T01:30:32;5.97;;;3.03;;
7843;SDS011;3967;48.702;9.326;2023-09-30T01:32:59;6.33;;;2.87;;
7843;SDS011;3967;48.702;9.326;2023-09-30T01:35:26;6.63;;;3.10;;
7843;SDS011;3967;48.702;9.326;2023-09-30T01:37:53;4.40;;;2.40;;
7843;SDS011;3967;48.702;9.326;2023-09-30T01:40:20;5.13;;;2.47;;
7843;SDS011;3967;48.702;9.326;2023-09-30T01:42:46;3.93;;;2.30;;
7843;SDS011;3967;48.702;9.326;2023-09-30T01:45:13;4.67;;;2.20;;
7843;SDS011;3967;48.702;9.326;2023-09-30T01:47:40;3.83;;;2.37;;
7843;SDS011;3967;48.702;9.326;2023-09-30T01:50:07;4.23;;;2.13;;
7843;SDS011;3967;48.702;9.326;2023-09-30T01:52:34;3.17;;;1.80;;
7843;SDS011;3967;48.702;9.326;2023-09-30T01:55:01;4.13;;;2.20;;
7843;SDS011;3967;48.702;9.326;2023-09-30T01:57:28;4.77;;;2.30;;
7843;SDS011;3967;48.702;9.326;2023-09-30T01:59:55;4.07;;;2.63;;
7843;SDS011;3967;48.702;9.326;2023-09-30T02:02:22;5.20;;;2.60;;
7843;SDS011;3967;48.702;9.326;2023-09-30T02:04:48;4.03;;;2.20;;
7843;SDS011;3967;48.702;9.326;2023-09-30T02:07:15;3.70;;;2.30;;
7843;SDS011;3967;48.702;9.326;2023-09-30T02:09:42;4.17;;;1.90;;
7843;SDS011;3967;48.702;9.326;2023-09-30T02:12:09;3.30;;;1.80;;
7843;SDS011;3967;48.702;9.326;2023-09-30T02:14:37;4.07;;;2.43;;
7843;SDS011;3967;48.702;9.326;2023-09-30T02:17:04;3.80;;;1.97;;
7843;SDS011;3967;48.702;9.326;2023-09-30T02:19:31;5.47;;;2.33;;
7843;SDS011;3967;48.702;9.326;2023-09-30T02:22:00;3.67;;;2.00;;
7843;SDS011;3967;48.702;9.326;2023-09-30T02:24:26;4.17;;;1.83;;
7843;SDS011;3967;48.702;9.326;2023-09-30T02:26:53;3.00;;;1.97;;
7843;SDS011;3967;48.702;9.326;2023-09-30T02:29:20;3.37;;;2.00;;
7843;SDS011;3967;48.702;9.326;2023-09-30T02:31:47;2.97;;;1.80;;
7843;SDS011;3967;48.702;9.326;2023-09-30T02:34:14;4.30;;;2.17;;
7843;SDS011;3967;48.702;9.326;2023-09-30T02:36:40;2.97;;;2.10;;
7843;SDS011;3967;48.702;9.326;2023-09-30T02:39:08;3.37;;;2.10;;
7843;SDS011;3967;48.702;9.326;2023-09-30T02:41:35;2.87;;;2.03;;
7843;SDS011;3967;48.702;9.326;2023-09-30T02:44:04;4.00;;;2.40;;
7843;SDS011;3967;48.702;9.326;2023-09-30T02:46:31;5.20;;;2.53;;
7843;SDS011;3967;48.702;9.326;2023-09-30T02:48:58;5.30;;;2.30;;
7843;SDS011;3967;48.702;9.326;2023-09-30T02:51:24;4.13;;;2.40;;
7843;SDS011;3967;48.702;9.326;2023-09-30T02:53:51;5.47;;;2.47;;
7843;SDS011;3967;48.702;9.326;2023-09-30T02:56:18;4.47;;;2.63;;
7843;SDS011;3967;48.702;9.326;2023-09-30T02:58:45;6.97;;;2.93;;
7843;SDS011;3967;48.702;9.326;2023-09-30T03:01:15;4.97;;;2.60;;
7843;SDS011;3967;48.702;9.326;2023-09-30T03:03:46;6.23;;;2.77;;
7843;SDS011;3967;48.702;9.326;2023-09-30T03:06:12;6.37;;;3.37;;
7843;SDS011;3967;48.702;9.326;2023-09-30T03:08:40;5.07;;;2.73;;
7843;SDS011;3967;48.702;9.326;2023-09-30T03:11:07;6.77;;;2.93;;
7843;SDS011;3967;48.702;9.326;2023-09-30T03:13:34;4.83;;;2.60;;
7843;SDS011;3967;48.702;9.326;2023-09-30T03:16:01;6.70;;;3.03;;
7843;SDS011;3967;48.702;9.326;2023-09-30T03:18:27;5.00;;;2.73;;
7843;SDS011;3967;48.702;9.326;2023-09-30T03:21:00;4.77;;;2.77;;
7843;SDS011;3967;48.702;9.326;2023-09-30T03:23:28;6.80;;;3.20;;
7843;SDS011;3967;48.702;9.326;2023-09-30T03:25:57;6.53;;;3.00;;
7843;SDS011;3967;48.702;9.326;2023-09-30T03:28:25;7.23;;;2.87;;
7843;SDS011;3967;48.702;9.326;2023-09-30T03:30:52;7.07;;;3.47;;
7843;SDS011;3967;48.702;9.326;2023-09-30T03:33:19;7.40;;;3.50;;
7843;SDS011;3967;48.702;9.326;2023-09-30T03:35:46;4.53;;;2.73;;
7843;SDS011;3967;48.702;9.326;2023-09-30T03:38:13;4.63;;;2.67;;
7843;SDS011;3967;48.702;9.326;2023-09-30T03:40:40;4.87;;;2.80;;
7843;SDS011;3967;48.702;9.326;2023-09-30T03:43:14;6.93;;;3.20;;
7843;SDS011;3967;48.702;9.326;2023-09-30T03:45:40;6.13;;;2.87;;
7843;SDS011;3967;48.702;9.326;2023-09-30T03:48:07;4.53;;;2.87;;
7843;SDS011;3967;48.702;9.326;2023-09-30T03:50:36;6.13;;;3.50;;
7843;SDS011;3967;48.702;9.326;2023-09-30T03:53:04;4.00;;;2.90;;
7843;SDS011;3967;48.702;9.326;2023-09-30T03:55:33;5.90;;;2.60;;
7843;SDS011;3967;48.702;9.326;2023-09-30T03:58:00;5.40;;;2.63;;
7843;SDS011;3967;48.702;9.326;2023-09-30T04:00:29;5.60;;;3.03;;
7843;SDS011;3967;48.702;9.326;2023-09-30T04:02:57;6.43;;;3.30;;
7843;SDS011;3967;48.702;9.326;2023-09-30T04:05:27;7.13;;;2.90;;
7843;SDS011;3967;48.702;9.326;2023-09-30T04:07:58;4.37;;;2.30;;
7843;SDS011;3967;48.702;9.326;2023-09-30T04:10:25;4.27;;;2.60;;
7843;SDS011;3967;48.702;9.326;2023-09-30T04:12:51;5.07;;;2.90;;
7843;SDS011;3967;48.702;9.326;2023-09-30T04:15:19;5.17;;;2.60;;
7843;SDS011;3967;48.702;9.326;2023-09-30T04:17:45;5.77;;;3.10;;
7843;SDS011;3967;48.702;9.326;2023-09-30T04:20:14;5.87;;;2.93;;
7843;SDS011;3967;48.702;9.326;2023-09-30T04:22:47;5.83;;;3.10;;
7843;SDS011;3967;48.702;9.326;2023-09-30T04:25:15;4.83;;;2.70;;
7843;SDS011;3967;48.702;9.326;2023-09-30T04:27:43;3.53;;;2.10;;
7843;SDS011;3967;48.702;9.326;2023-09-30T04:30:11;4.77;;;2.90;;
7843;SDS011;3967;48.702;9.326;2023-09-30T04:32:38;7.33;;;2.90;;
7843;SDS011;3967;48.702;9.326;2023-09-30T04:35:05;5.23;;;2.57;;
7843;SDS011;3967;48.702;9.326;2023-09-30T04:37:36;5.17;;;2.70;;
7843;SDS011;3967;48.702;9.326;2023-09-30T04:40:04;6.10;;;2.70;;
7843;SDS011;3967;48.702;9.326;2023-09-30T04:42:42;4.90;;;2.60;;
7843;SDS011;3967;48.702;9.326;2023-09-30T04:45:10;4.93;;;2.67;;
7843;SDS011;3967;48.702;9.326;2023-09-30T04:47:38;4.67;;;2.80;;
7843;SDS011;3967;48.702;9.326;2023-09-30T04:50:06;7.93;;;2.90;;
7843;SDS011;3967;48.702;9.326;2023-09-30T04:52:34;5.73;;;2.60;;
7843;SDS011;3967;48.702;9.326;2023-09-30T04:55:01;3.87;;;2.70;;
7843;SDS011;3967;48.702;9.326;2023-09-30T04:57:28;5.53;;;2.83;;
7843;SDS011;3967;48.702;9.326;2023-09-30T04:59:55;6.27;;;2.70;;
7843;SDS011;3967;48.702;9.326;2023-09-30T05:02:23;5.13;;;3.03;;
7843;SDS011;3967;48.702;9.326;2023-09-30T05:04:53;6.33;;;3.20;;
7843;SDS011;3967;48.702;9.326;2023-09-30T05:07:20;6.23;;;3.30;;
7843;SDS011;3967;48.702;9.326;2023-09-30T05:09:50;7.07;;;2.73;;
7843;SDS011;3967;48.702;9.326;2023-09-30T05:12:17;4.03;;;3.00;;
7843;SDS011;3967;48.702;9.326;2023-09-30T05:14:43;4.70;;;3.17;;
7843;SDS011;3967;48.702;9.326;2023-09-30T05:17:10;5.27;;;3.13;;
7843;SDS011;3967;48.702;9.326;2023-09-30T05:19:38;5.23;;;3.30;;
7843;SDS011;3967;48.702;9.326;2023-09-30T05:22:05;7.83;;;3.23;;
7843;SDS011;3967;48.702;9.326;2023-09-30T05:24:31;5.13;;;2.93;;
7843;SDS011;3967;48.702;9.326;2023-09-30T05:26:59;6.93;;;2.93;;
7843;SDS011;3967;48.702;9.326;2023-09-30T05:29:25;4.50;;;2.63;;
7843;SDS011;3967;48.702;9.326;2023-09-30T05:31:53;3.87;;;2.97;;
7843;SDS011;3967;48.702;9.326;2023-09-30T05:34:20;4.90;;;3.00;;
7843;SDS011;3967;48.702;9.326;2023-09-30T05:36:47;5.33;;;3.37;;
7843;SDS011;3967;48.702;9.326;2023-09-30T05:39:16;5.47;;;3.27;;
7843;SDS011;3967;48.702;9.326;2023-09-30T05:41:46;4.43;;;2.80;;
7843;SDS011;3967;48.702;9.326;2023-09-30T05:44:13;5.53;;;3.33;;
7843;SDS011;3967;48.702;9.326;2023-09-30T05:46:40;6.63;;;3.37;;
7843;SDS011;3967;48.702;9.326;2023-09-30T05:49:09;4.83;;;3.30;;
7843;SDS011;3967;48.702;9.326;2023-09-30T05:51:40;7.53;;;3.73;;
7843;SDS011;3967;48.702;9.326;2023-09-30T05:54:07;10.93;;;3.60;;
7843;SDS011;3967;48.702;9.326;2023-09-30T05:56:36;5.93;;;2.93;;
7843;SDS011;3967;48.702;9.326;2023-09-30T05:59:09;5.77;;;3.30;;
7843;SDS011;3967;48.702;9.326;2023-09-30T06:01:35;5.17;;;3.03;;
7843;SDS011;3967;48.702;9.326;2023-09-30T06:04:02;5.17;;;3.20;;
7843;SDS011;3967;48.702;9.326;2023-09-30T06:06:30;9.53;;;3.67;;
7843;SDS011;3967;48.702;9.326;2023-09-30T06:08:59;4.93;;;3.60;;
7843;SDS011;3967;48.702;9.326;2023-09-30T06:11:25;6.20;;;3.07;;
7843;SDS011;3967;48.702;9.326;2023-09-30T06:13:54;6.90;;;3.60;;
7843;SDS011;3967;48.702;9.326;2023-09-30T06:16:21;6.50;;;3.07;;
7843;SDS011;3967;48.702;9.326;2023-09-30T06:18:50;5.77;;;3.27;;
7843;SDS011;3967;48.702;9.326;2023-09-30T06:21:17;7.07;;;3.43;;
7843;SDS011;3967;48.702;9.326;2023-09-30T06:23:47;6.27;;;3.70;;
7843;SDS011;3967;48.702;9.326;2023-09-30T06:26:14;5.87;;;3.80;;
7843;SDS011;3967;48.702;9.326;2023-09-30T06:28:42;7.40;;;3.90;;
7843;SDS011;3967;48.702;9.326;2023-09-30T06:31:10;7.00;;;3.90;;
7843;SDS011;3967;48.702;9.326;2023-09-30T06:33:39;6.23;;;3.97;;
7843;SDS011;3967;48.702;9.326;2023-09-30T06:36:10;8.57;;;4.47;;
7843;SDS011;3967;48.702;9.326;2023-09-30T06:38:37;9.10;;;4.13;;
7843;SDS011;3967;48.702;9.326;2023-09-30T06:41:04;9.77;;;4.77;;
7843;SDS011;3967;48.702;9.326;2023-09-30T06:43:31;7.87;;;5.00;;
7843;SDS011;3967;48.702;9.326;2023-09-30T06:45:59;9.50;;;4.37;;
7843;SDS011;3967;48.702;9.326;2023-09-30T06:48:31;13.57;;;4.03;;
7843;SDS011;3967;48.702;9.326;2023-09-30T06:50:58;6.53;;;3.70;;
7843;SDS011;3967;48.702;9.326;2023-09-30T06:53:25;8.70;;;4.27;;
7843;SDS011;3967;48.702;9.326;2023-09-30T06:55:52;8.43;;;4.07;;
7843;SDS011;3967;48.702;9.326;2023-09-30T06:58:18;5.40;;;3.07;;
7843;SDS011;3967;48.702;9.326;2023-09-30T07:00:49;7.10;;;3.70;;
7843;SDS011;3967;48.702;9.326;2023-09-30T07:03:17;8.03;;;4.30;;
7843;SDS011;3967;48.702;9.326;2023-09-30T07:05:49;5.33;;;3.77;;
7843;SDS011;3967;48.702;9.326;2023-09-30T07:08:16;5.43;;;3.97;;
7843;SDS011;3967;48.702;9.326;2023-09-30T07:10:43;5.07;;;3.77;;
7843;SDS011;3967;48.702;9.326;2023-09-30T07:13:12;5.07;;;3.80;;
7843;SDS011;3967;48.702;9.326;2023-09-30T07:15:38;7.07;;;3.63;;
7843;SDS011;3967;48.702;9.326;2023-09-30T07:18:05;6.10;;;3.40;;
7843;SDS011;3967;48.702;9.326;2023-09-30T07:20:32;7.63;;;2.90;;
7843;SDS011;3967;48.702;9.326;2023-09-30T07:22:59;4.57;;;3.20;;
7843;SDS011;3967;48.702;9.326;2023-09-30T07:25:44;3.50;;;3.00;;
7843;SDS011;3967;48.702;9.326;2023-09-30T07:28:11;4.73;;;3.20;;
7843;SDS011;3967;48.702;9.326;2023-09-30T07:30:39;6.87;;;4.13;;
7843;SDS011;3967;48.702;9.326;2023-09-30T07:33:06;6.13;;;3.10;;
7843;SDS011;3967;48.702;9.326;2023-09-30T07:35:34;5.03;;;3.10;;
7843;SDS011;3967;48.702;9.326;2023-09-30T07:38:01;6.60;;;3.90;;
7843;SDS011;3967;48.702;9.326;2023-09-30T07:40:29;8.03;;;3.77;;
7843;SDS011;3967;48.702;9.326;2023-09-30T07:42:56;8.03;;;4.17;;
7843;SDS011;3967;48.702;9.326;2023-09-30T07:45:23;5.10;;;3.40;;
7843;SDS011;3967;48.702;9.326;2023-09-30T07:47:50;8.90;;;4.17;;
7843;SDS011;3967;48.702;9.326;2023-09-30T07:50:17;5.80;;;3.87;;
7843;SDS011;3967;48.702;9.326;2023-09-30T07:52:45;4.70;;;2.90;;
7843;SDS011;3967;48.702;9.326;2023-09-30T07:55:12;6.57;;;3.50;;
7843;SDS011;3967;48.702;9.326;2023-09-30T07:57:39;4.57;;;3.27;;
7843;SDS011;3967;48.702;9.326;2023-09-30T08:00:10;7.93;;;3.33;;
7843;SDS011;3967;48.702;9.326;2023-09-30T08:02:42;5.30;;;3.47;;
7843;SDS011;3967;48.702;9.326;2023-09-30T08:05:09;11.33;;;3.73;;
7843;SDS011;3967;48.702;9.326;2023-09-30T08:07:36;6.40;;;3.27;;
7843;SDS011;3967;48.702;9.326;2023-09-30T08:10:03;6.50;;;3.47;;
7843;SDS011;3967;48.702;9.326;2023-09-30T08:12:32;5.83;;;3.03;;
7843;SDS011;3967;48.702;9.326;2023-09-30T08:14:59;6.90;;;3.10;;
7843;SDS011;3967;48.702;9.326;2023-09-30T08:17:26;5.20;;;3.40;;
7843;SDS011;3967;48.702;9.326;2023-09-30T08:19:53;6.13;;;3.17;;
7843;SDS011;3967;48.702;9.326;2023-09-30T08:22:19;18.87;;;3.73;;
7843;SDS011;3967;48.702;9.326;2023-09-30T08:24:47;6.37;;;3.40;;
7843;SDS011;3967;48.702;9.326;2023-09-30T08:27:14;4.53;;;3.20;;
7843;SDS011;3967;48.702;9.326;2023-09-30T08:29:41;5.80;;;3.10;;
7843;SDS011;3967;48.702;9.326;2023-09-30T08:32:08;4.43;;;2.90;;
7843;SDS011;3967;48.702;9.326;2023-09-30T08:34:34;5.23;;;2.83;;
7843;SDS011;3967;48.702;9.326;2023-09-30T08:37:01;6.47;;;4.13;;
7843;SDS011;3967;48.702;9.326;2023-09-30T08:39:28;5.23;;;3.30;;
7843;SDS011;3967;48.702;9.326;2023-09-30T08:41:55;8.73;;;3.57;;
7843;SDS011;3967;48.702;9.326;2023-09-30T08:44:23;3.37;;;2.20;;
7843;SDS011;3967;48.702;9.326;2023-09-30T08:46:50;4.03;;;2.73;;
7843;SDS011;3967;48.702;9.326;2023-09-30T08:49:18;6.30;;;2.70;;
7843;SDS011;3967;48.702;9.326;2023-09-30T08:51:48;8.37;;;3.30;;
7843;SDS011;3967;48.702;9.326;2023-09-30T08:54:16;6.97;;;3.03;;
7843;SDS011;3967;48.702;9.326;2023-09-30T08:56:43;4.73;;;3.43;;
7843;SDS011;3967;48.702;9.326;2023-09-30T08:59:14;6.27;;;2.93;;
7843;SDS011;3967;48.702;9.326;2023-09-30T09:01:41;6.20;;;3.10;;
7843;SDS011;3967;48.702;9.326;2023-09-30T09:04:08;6.33;;;3.67;;
7843;SDS011;3967;48.702;9.326;2023-09-30T09:06:35;8.17;;;3.90;;
7843;SDS011;3967;48.702;9.326;2023-09-30T09:11:43;7.80;;;4.30;;
7843;SDS011;3967;48.702;9.326;2023-09-30T09:14:10;5.30;;;4.17;;
7843;SDS011;3967;48.702;9.326;2023-09-30T09:16:37;8.13;;;3.97;;
7843;SDS011;3967;48.702;9.326;2023-09-30T09:19:16;5.60;;;4.10;;
7843;SDS011;3967;48.702;9.326;2023-09-30T09:21:56;7.37;;;4.20;;
7843;SDS011;3967;48.702;9.326;2023-09-30T09:24:31;7.43;;;3.73;;
7843;SDS011;3967;48.702;9.326;2023-09-30T09:29:34;4.90;;;3.57;;
7843;SDS011;3967;48.702;9.326;2023-09-30T09:34:39;7.77;;;3.57;;
7843;SDS011;3967;48.702;9.326;2023-09-30T09:37:14;6.40;;;3.87;;
7843;SDS011;3967;48.702;9.326;2023-09-30T09:39:52;5.77;;;4.17;;
7843;SDS011;3967;48.702;9.326;2023-09-30T09:42:28;6.50;;;3.60;;
7843;SDS011;3967;48.702;9.326;2023-09-30T09:44:56;6.80;;;4.47;;
7843;SDS011;3967;48.702;9.326;2023-09-30T09:47:25;6.50;;;3.80;;
7843;SDS011;3967;48.702;9.326;2023-09-30T09:49:53;5.07;;;3.30;;
7843;SDS011;3967;48.702;9.326;2023-09-30T09:52:20;5.30;;;3.60;;
7843;SDS011;3967;48.702;9.326;2023-09-30T09:54:50;4.07;;;3.30;;
7843;SDS011;3967;48.702;9.326;2023-09-30T09:57:18;5.13;;;3.03;;
7843;SDS011;3967;48.702;9.326;2023-09-30T09:59:46;7.20;;;3.50;;
7843;SDS011;3967;48.702;9.326;2023-09-30T10:02:17;5.27;;;3.20;;
7843;SDS011;3967;48.702;9.326;2023-09-30T10:04:45;3.60;;;3.00;;
7843;SDS011;3967;48.702;9.326;2023-09-30T10:07:20;8.03;;;3.03;;
7843;SDS011;3967;48.702;9.326;2023-09-30T10:09:51;5.10;;;3.23;;
7843;SDS011;3967;48.702;9.326;2023-09-30T10:12:19;6.67;;;3.50;;
7843;SDS011;3967;48.702;9.326;2023-09-30T10:14:48;9.40;;;4.27;;
7843;SDS011;3967;48.702;9.326;2023-09-30T10:17:14;6.33;;;3.20;;
7843;SDS011;3967;48.702;9.326;2023-09-30T10:22:34;5.60;;;3.10;;
7843;SDS011;3967;48.702;9.326;2023-09-30T10:25:01;6.33;;;3.27;;
7843;SDS011;3967;48.702;9.326;2023-09-30T10:28:23;5.70;;;3.50;;
7843;SDS011;3967;48.702;9.326;2023-09-30T10:31:07;6.70;;;3.60;;
7843;SDS011;3967;48.702;9.326;2023-09-30T10:39:10;6.47;;;3.40;;
7843;SDS011;3967;48.702;9.326;2023-09-30T10:46:57;5.77;;;3.67;;
7843;SDS011;3967;48.702;9.326;2023-09-30T10:51:56;7.27;;;3.50;;
7843;SDS011;3967;48.702;9.326;2023-09-30T10:54:24;7.13;;;4.10;;
7843;SDS011;3967;48.702;9.326;2023-09-30T10:56:53;7.80;;;4.20;;
7843;SDS011;3967;48.702;9.326;2023-09-30T10:59:23;6.50;;;3.77;;
7843;SDS011;3967;48.702;9.326;2023-09-30T11:01:51;9.30;;;5.17;;
7843;SDS011;3967;48.702;9.326;2023-09-30T11:04:19;7.70;;;4.40;;
7843;SDS011;3967;48.702;9.326;2023-09-30T11:06:47;7.93;;;4.37;;
7843;SDS011;3967;48.702;9.326;2023-09-30T11:09:18;7.93;;;4.40;;
7843;SDS011;3967;48.702;9.326;2023-09-30T11:11:49;7.77;;;4.40;;
7843;SDS011;3967;48.702;9.326;2023-09-30T11:16:55;8.50;;;4.43;;
7843;SDS011;3967;48.702;9.326;2023-09-30T11:19:23;6.30;;;4.03;;
7843;SDS011;3967;48.702;9.326;2023-09-30T11:21:54;6.27;;;4.10;;
7843;SDS011;3967;48.702;9.326;2023-09-30T11:24:21;8.13;;;4.30;;
7843;SDS011;3967;48.702;9.326;2023-09-30T11:26:52;7.57;;;4.40;;
7843;SDS011;3967;48.702;9.326;2023-09-30T11:29:19;6.67;;;3.60;;
7843;SDS011;3967;48.702;9.326;2023-09-30T11:31:48;5.30;;;3.53;;
7843;SDS011;3967;48.702;9.326;2023-09-30T11:34:17;6.50;;;3.53;;
7843;SDS011;3967;48.702;9.326;2023-09-30T11:36:49;8.33;;;3.90;;
7843;SDS011;3967;48.702;9.326;2023-09-30T11:39:22;4.80;;;3.13;;
7843;SDS011;3967;48.702;9.326;2023-09-30T11:41:50;6.33;;;3.60;;
7843;SDS011;3967;48.702;9.326;2023-09-30T11:44:18;6.70;;;4.07;;
7843;SDS011;3967;48.702;9.326;2023-09-30T11:46:52;5.83;;;3.77;;
7843;SDS011;3967;48.702;9.326;2023-09-30T11:49:26;8.97;;;4.33;;
7843;SDS011;3967;48.702;9.326;2023-09-30T11:51:53;6.47;;;4.37;;
7843;SDS011;3967;48.702;9.326;2023-09-30T11:54:21;8.70;;;4.43;;
7843;SDS011;3967;48.702;9.326;2023-09-30T11:56:50;7.87;;;4.50;;
7843;SDS011;3967;48.702;9.326;2023-09-30T11:59:17;9.07;;;4.10;;
7843;SDS011;3967;48.702;9.326;2023-09-30T12:01:45;7.20;;;4.13;;
7843;SDS011;3967;48.702;9.326;2023-09-30T12:04:32;6.43;;;4.23;;
7843;SDS011;3967;48.702;9.326;2023-09-30T12:06:59;7.27;;;4.67;;
7843;SDS011;3967;48.702;9.326;2023-09-30T12:09:26;9.63;;;4.40;;
7843;SDS011;3967;48.702;9.326;2023-09-30T12:11:53;7.00;;;4.00;;
7843;SDS011;3967;48.702;9.326;2023-09-30T12:14:22;7.33;;;4.17;;
7843;SDS011;3967;48.702;9.326;2023-09-30T12:16:48;7.93;;;4.00;;
7843;SDS011;3967;48.702;9.326;2023-09-30T12:19:17;9.03;;;4.37;;
7843;SDS011;3967;48.702;9.326;2023-09-30T12:21:44;6.07;;;3.93;;
7843;SDS011;3967;48.702;9.326;2023-09-30T12:24:14;6.97;;;4.50;;
7843;SDS011;3967;48.702;9.326;2023-09-30T12:26:50;6.70;;;4.07;;
7843;SDS011;3967;48.702;9.326;2023-09-30T12:29:18;6.73;;;4.30;;
7843;SDS011;3967;48.702;9.326;2023-09-30T12:31:48;6.67;;;4.10;;
7843;SDS011;3967;48.702;9.326;2023-09-30T12:34:20;6.67;;;3.87;;
7843;SDS011;3967;48.702;9.326;2023-09-30T12:36:49;9.97;;;4.43;;
7843;SDS011;3967;48.702;9.326;2023-09-30T12:39:16;7.03;;;3.90;;
7843;SDS011;3967;48.702;9.326;2023-09-30T12:41:43;8.30;;;4.50;;
7843;SDS011;3967;48.702;9.326;2023-09-30T12:44:12;10.07;;;4.73;;
7843;SDS011;3967;48.702;9.326;2023-09-30T12:46:40;6.00;;;3.77;;
7843;SDS011;3967;48.702;9.326;2023-09-30T12:49:07;10.03;;;4.57;;
7843;SDS011;3967;48.702;9.326;2023-09-30T12:51:34;8.27;;;4.57;;
7843;SDS011;3967;48.702;9.326;2023-09-30T12:54:02;6.43;;;4.20;;
7843;SDS011;3967;48.702;9.326;2023-09-30T12:56:30;7.67;;;3.90;;
7843;SDS011;3967;48.702;9.326;2023-09-30T12:58:58;8.03;;;4.53;;
7843;SDS011;3967;48.702;9.326;2023-09-30T13:01:25;6.00;;;4.13;;
7843;SDS011;3967;48.702;9.326;2023-09-30T13:03:55;8.90;;;5.00;;
7843;SDS011;3967;48.702;9.326;2023-09-30T13:06:22;7.17;;;5.07;;
7843;SDS011;3967;48.702;9.326;2023-09-30T13:08:49;7.37;;;4.00;;
7843;SDS011;3967;48.702;9.326;2023-09-30T13:11:16;6.70;;;4.33;;
7843;SDS011;3967;48.702;9.326;2023-09-30T13:13:43;7.40;;;4.17;;
7843;SDS011;3967;48.702;9.326;2023-09-30T13:16:11;6.73;;;3.70;;
7843;SDS011;3967;48.702;9.326;2023-09-30T13:18:38;9.10;;;4.27;;
7843;SDS011;3967;48.702;9.326;2023-09-30T13:21:06;6.73;;;4.37;;
7843;SDS011;3967;48.702;9.326;2023-09-30T13:23:33;7.70;;;4.50;;
7843;SDS011;3967;48.702;9.326;2023-09-30T13:26:00;10.07;;;4.67;;
7843;SDS011;3967;48.702;9.326;2023-09-30T13:28:28;7.83;;;4.53;;
7843;SDS011;3967;48.702;9.326;2023-09-30T13:30:55;8.03;;;4.57;;
7843;SDS011;3967;48.702;9.326;2023-09-30T13:33:23;7.87;;;4.70;;
7843;SDS011;3967;48.702;9.326;2023-09-30T13:35:50;6.40;;;3.83;;
7843;SDS011;3967;48.702;9.326;2023-09-30T13:38:17;8.77;;;3.87;;
7843;SDS011;3967;48.702;9.326;2023-09-30T13:40:43;6.93;;;3.90;;
7843;SDS011;3967;48.702;9.326;2023-09-30T13:43:12;9.67;;;4.47;;
7843;SDS011;3967;48.702;9.326;2023-09-30T13:45:39;6.03;;;4.00;;
7843;SDS011;3967;48.702;9.326;2023-09-30T13:48:06;8.93;;;4.23;;
7843;SDS011;3967;48.702;9.326;2023-09-30T13:50:34;7.53;;;4.37;;
7843;SDS011;3967;48.702;9.326;2023-09-30T13:53:01;10.90;;;4.77;;
7843;SDS011;3967;48.702;9.326;2023-09-30T13:55:29;7.90;;;3.67;;
7843;SDS011;3967;48.702;9.326;2023-09-30T13:57:56;6.23;;;4.67;;
7843;SDS011;3967;48.702;9.326;2023-09-30T14:00:23;9.03;;;4.17;;
7843;SDS011;3967;48.702;9.326;2023-09-30T14:02:50;8.97;;;4.73;;
7843;SDS011;3967;48.702;9.326;2023-09-30T14:05:18;8.90;;;4.07;;
7843;SDS011;3967;48.702;9.326;2023-09-30T14:07:45;6.40;;;4.03;;
7843;SDS011;3967;48.702;9.326;2023-09-30T14:10:12;6.80;;;3.90;;
7843;SDS011;3967;48.702;9.326;2023-09-30T14:12:39;9.23;;;4.17;;
7843;SDS011;3967;48.702;9.326;2023-09-30T14:15:07;8.23;;;4.10;;
7843;SDS011;3967;48.702;9.326;2023-09-30T14:17:34;9.63;;;4.67;;
7843;SDS011;3967;48.702;9.326;2023-09-30T14:20:02;5.60;;;3.83;;
7843;SDS011;3967;48.702;9.326;2023-09-30T14:22:32;8.43;;;4.20;;
7843;SDS011;3967;48.702;9.326;2023-09-30T14:24:59;6.57;;;4.07;;
7843;SDS011;3967;48.702;9.326;2023-09-30T14:27:25;7.10;;;4.10;;
7843;SDS011;3967;48.702;9.326;2023-09-30T14:29:53;8.77;;;4.00;;
7843;SDS011;3967;48.702;9.326;2023-09-30T14:32:19;7.40;;;4.03;;
7843;SDS011;3967;48.702;9.326;2023-09-30T14:34:46;8.70;;;4.60;;
7843;SDS011;3967;48.702;9.326;2023-09-30T14:37:13;7.07;;;4.13;;
7843;SDS011;3967;48.702;9.326;2023-09-30T14:39:40;7.60;;;3.60;;
7843;SDS011;3967;48.702;9.326;2023-09-30T14:42:07;6.67;;;3.90;;
7843;SDS011;3967;48.702;9.326;2023-09-30T14:44:34;6.53;;;3.90;;
7843;SDS011;3967;48.702;9.326;2023-09-30T14:47:00;8.03;;;4.20;;
7843;SDS011;3967;48.702;9.326;2023-09-30T14:49:27;5.77;;;3.70;;
7843;SDS011;3967;48.702;9.326;2023-09-30T14:51:56;6.30;;;3.83;;
7843;SDS011;3967;48.702;9.326;2023-09-30T14:54:23;7.57;;;4.30;;
7843;SDS011;3967;48.702;9.326;2023-09-30T14:56:50;7.13;;;4.30;;
7843;SDS011;3967;48.702;9.326;2023-09-30T14:59:16;11.00;;;4.20;;
7843;SDS011;3967;48.702;9.326;2023-09-30T15:01:43;8.73;;;4.13;;
7843;SDS011;3967;48.702;9.326;2023-09-30T15:04:10;9.80;;;4.73;;
7843;SDS011;3967;48.702;9.326;2023-09-30T15:06:37;5.63;;;3.87;;
7843;SDS011;3967;48.702;9.326;2023-09-30T15:09:04;6.17;;;3.70;;
7843;SDS011;3967;48.702;9.326;2023-09-30T15:11:31;10.00;;;4.57;;
7843;SDS011;3967;48.702;9.326;2023-09-30T15:13:58;7.03;;;3.73;;
7843;SDS011;3967;48.702;9.326;2023-09-30T15:16:24;7.63;;;3.83;;
7843;SDS011;3967;48.702;9.326;2023-09-30T15:18:52;7.23;;;3.97;;
7843;SDS011;3967;48.702;9.326;2023-09-30T15:21:19;6.87;;;3.67;;
7843;SDS011;3967;48.702;9.326;2023-09-30T15:23:46;8.03;;;3.63;;
7843;SDS011;3967;48.702;9.326;2023-09-30T15:26:16;7.30;;;4.40;;
7843;SDS011;3967;48.702;9.326;2023-09-30T15:28:43;6.93;;;4.00;;
7843;SDS011;3967;48.702;9.326;2023-09-30T15:31:14;6.97;;;3.83;;
7843;SDS011;3967;48.702;9.326;2023-09-30T15:33:41;10.80;;;4.40;;
7843;SDS011;3967;48.702;9.326;2023-09-30T15:36:10;6.90;;;3.87;;
7843;SDS011;3967;48.702;9.326;2023-09-30T15:38:40;8.13;;;4.20;;
7843;SDS011;3967;48.702;9.326;2023-09-30T15:41:07;7.73;;;4.20;;
7843;SDS011;3967;48.702;9.326;2023-09-30T15:43:38;6.63;;;3.57;;
7843;SDS011;3967;48.702;9.326;2023-09-30T15:46:09;6.63;;;3.73;;
7843;SDS011;3967;48.702;9.326;2023-09-30T15:48:36;6.07;;;4.07;;